Time;durP1;ratioP1;P1;durP2;ratioP2;P2;SDS_P1;SDS_P2;PMS_P1;PMS_P2;Temp;Humidity;BMP_temperature;BMP_pressure;BME280_temperature;BME280_humidity;BME280_pressure;Samples;Min_cycle;Max_cycle;Signal;HPM_P1;HPM_P2
2022/05/09 00:00:27;;;;;;;5.00;2.00;;;13.30;99.90;;;;;;5138236;27;20166;-69
2022/05/09 00:02:53;;;;;;;6.03;2.70;;;13.00;99.90;;;;;;5138074;27;20213;-69
2022/05/09 00:05:21;;;;;;;5.03;2.77;;;12.90;99.90;;;;;;5137830;27;20677;-70
2022/05/09 00:07:47;;;;;;;4.80;2.33;;;12.90;99.90;;;;;;5138582;27;20247;-70
2022/05/09 00:10:15;;;;;;;3.57;2.33;;;12.90;99.90;;;;;;5137887;27;20166;-70
2022/05/09 00:12:41;;;;;;;5.10;2.43;;;12.80;99.90;;;;;;5137582;27;20594;-71
2022/05/09 00:15:08;;;;;;;3.57;2.20;;;12.90;99.90;;;;;;5120066;27;20181;-71
2022/05/09 00:17:33;;;;;;;5.13;2.57;;;12.80;99.90;;;;;;5138319;27;20158;-70
2022/05/09 00:19:59;;;;;;;8.33;2.80;;;12.60;99.90;;;;;;5139827;27;20168;-70
2022/05/09 00:22:25;;;;;;;4.77;2.27;;;12.50;99.90;;;;;;5140960;27;20561;-69
2022/05/09 00:24:50;;;;;;;5.23;2.30;;;12.50;99.90;;;;;;5140078;27;20162;-70
2022/05/09 00:27:16;;;;;;;4.10;2.30;;;12.40;99.90;;;;;;5139580;27;20676;-70
2022/05/09 00:29:42;;;;;;;4.93;2.37;;;12.50;99.90;;;;;;5138252;27;20175;-71
2022/05/09 00:32:08;;;;;;;7.23;2.10;;;12.60;99.90;;;;;;5137389;27;20166;-70
2022/05/09 00:34:37;;;;;;;3.63;2.10;;;12.40;99.90;;;;;;5137638;27;20256;-70
2022/05/09 00:37:03;;;;;;;5.30;2.33;;;12.40;99.90;;;;;;5137928;27;20225;-69
2022/05/09 00:39:29;;;;;;;4.60;2.23;;;12.40;99.90;;;;;;5137773;27;20188;-70
2022/05/09 00:42:05;;;;;;;4.50;2.70;;;12.30;99.90;;;;;;5137614;27;20597;-69
2022/05/09 00:44:30;;;;;;;2.33;1.70;;;12.40;99.90;;;;;;5137900;27;20164;-69
2022/05/09 00:46:56;;;;;;;4.93;2.47;;;12.40;99.90;;;;;;5138895;27;20165;-70
2022/05/09 00:49:45;;;;;;;5.50;2.10;;;12.20;99.90;;;;;;5138965;27;20185;-70
2022/05/09 00:52:36;;;;;;;3.43;2.33;;;12.10;99.90;;;;;;5163355;27;20243;-69
2022/05/09 00:55:06;;;;;;;6.93;2.30;;;12.20;99.90;;;;;;5150829;27;20172;-69
2022/05/09 00:57:43;;;;;;;2.60;2.13;;;12.10;99.90;;;;;;5137923;27;20161;-70
2022/05/09 01:00:13;;;;;;;3.23;2.00;;;12.10;99.90;;;;;;5119109;27;20181;-69
2022/05/09 01:02:43;;;;;;;3.07;2.07;;;12.10;99.90;;;;;;5137105;27;20534;-69
2022/05/09 01:05:12;;;;;;;4.10;2.40;;;12.00;99.90;;;;;;5137231;27;20165;-69
2022/05/09 01:07:38;;;;;;;4.20;2.37;;;12.20;99.90;;;;;;5136072;27;20203;-69
2022/05/09 01:10:04;;;;;;;3.73;2.40;;;12.00;99.90;;;;;;5136698;27;20181;-70
2022/05/09 01:12:34;;;;;;;2.60;2.10;;;12.00;99.90;;;;;;5152919;27;20173;-70
2022/05/09 01:15:04;;;;;;;3.97;2.10;;;11.90;99.90;;;;;;5152806;27;20177;-70
2022/05/09 01:17:31;;;;;;;2.20;2.00;;;11.80;99.90;;;;;;5152827;27;20212;-69
2022/05/09 01:20:00;;;;;;;4.87;2.73;;;11.80;99.90;;;;;;5136305;27;20150;-69
2022/05/09 01:22:29;;;;;;;2.43;1.90;;;11.80;99.90;;;;;;5136485;27;20587;-69
2022/05/09 01:25:02;;;;;;;5.27;2.40;;;11.70;99.90;;;;;;5135924;27;20635;-68
2022/05/09 01:27:29;;;;;;;7.07;2.07;;;11.70;99.90;;;;;;5136285;27;20197;-70
2022/05/09 01:30:00;;;;;;;3.23;2.13;;;11.80;99.90;;;;;;5136423;27;20165;-69
2022/05/09 01:33:04;;;;;;;3.10;2.20;;;11.70;99.90;;;;;;5137004;27;20181;-70
2022/05/09 01:35:54;;;;;;;4.37;2.20;;;11.50;99.90;;;;;;5122578;27;20279;-69
2022/05/09 01:38:50;;;;;;;4.07;2.07;;;11.40;99.90;;;;;;5135902;27;20189;-69
2022/05/09 01:41:15;;;;;;;2.80;2.20;;;11.60;99.90;;;;;;5118037;27;20177;-69
2022/05/09 01:43:48;;;;;;;4.53;2.10;;;11.40;99.90;;;;;;5152756;27;20174;-70
2022/05/09 01:46:20;;;;;;;3.30;2.50;;;11.40;99.90;;;;;;5136091;27;20174;-69
2022/05/09 01:51:32;;;;;;;4.13;2.30;;;11.40;99.90;;;;;;5135738;27;20168;-69
2022/05/09 01:53:58;;;;;;;7.80;2.40;;;11.40;99.90;;;;;;5136024;27;20161;-69
2022/05/09 01:56:30;;;;;;;3.03;2.20;;;11.10;99.90;;;;;;5117295;27;20220;-69
2022/05/09 01:58:56;;;;;;;4.27;2.30;;;11.30;99.90;;;;;;5135572;27;20153;-68
2022/05/09 02:01:25;;;;;;;5.00;2.33;;;11.30;99.90;;;;;;5135886;27;20236;-69
2022/05/09 02:03:52;;;;;;;4.07;2.33;;;11.20;99.90;;;;;;5135643;27;20230;-69
2022/05/09 02:06:18;;;;;;;3.40;2.13;;;11.30;99.90;;;;;;5117541;27;20261;-67
2022/05/09 02:08:44;;;;;;;6.33;2.03;;;11.10;99.90;;;;;;5135341;27;20196;-67
2022/05/09 02:11:10;;;;;;;2.90;2.20;;;11.10;99.90;;;;;;5119342;27;20189;-68
2022/05/09 02:13:35;;;;;;;4.20;2.50;;;10.90;99.90;;;;;;5135629;27;20198;-69
2022/05/09 02:16:02;;;;;;;5.73;2.37;;;10.90;99.90;;;;;;5135420;27;20476;-68
2022/05/09 02:18:28;;;;;;;3.60;2.20;;;10.80;99.90;;;;;;5135926;27;20189;-69
2022/05/09 02:20:54;;;;;;;5.33;2.47;;;10.60;99.90;;;;;;5134987;27;20530;-68
2022/05/09 02:23:19;;;;;;;6.20;2.63;;;10.70;99.90;;;;;;5117349;27;20169;-67
2022/05/09 02:25:45;;;;;;;6.13;2.50;;;10.80;99.90;;;;;;5135628;27;20174;-69
2022/05/09 02:28:13;;;;;;;4.07;2.47;;;10.70;99.90;;;;;;5118506;27;20285;-69
2022/05/09 02:30:40;;;;;;;4.40;2.60;;;10.50;99.90;;;;;;5137863;27;20154;-68
2022/05/09 02:33:07;;;;;;;6.33;2.67;;;10.50;99.90;;;;;;5154101;27;20586;-68
2022/05/09 02:35:34;;;;;;;4.67;2.50;;;10.50;99.90;;;;;;5137067;27;20154;-68
2022/05/09 02:37:59;;;;;;;3.67;2.13;;;10.30;99.90;;;;;;5135368;27;20157;-67
2022/05/09 02:40:26;;;;;;;3.17;2.00;;;10.30;99.90;;;;;;5135579;27;20543;-68
2022/05/09 02:42:56;;;;;;;3.17;2.30;;;10.30;99.90;;;;;;5135050;27;20557;-68
2022/05/09 02:45:21;;;;;;;4.13;2.00;;;10.30;99.90;;;;;;5151423;27;20514;-68
2022/05/09 02:47:47;;;;;;;4.17;2.10;;;10.40;99.90;;;;;;5135353;27;20204;-68
2022/05/09 02:50:14;;;;;;;5.47;2.33;;;10.50;99.90;;;;;;5135015;27;20494;-69
2022/05/09 02:52:40;;;;;;;3.77;1.93;;;10.30;99.90;;;;;;5134693;27;20164;-68
2022/05/09 02:55:07;;;;;;;7.73;2.40;;;10.30;99.90;;;;;;5134749;27;20158;-68
2022/05/09 02:57:34;;;;;;;3.63;2.33;;;10.40;99.90;;;;;;5134975;27;20825;-69
2022/05/09 03:00:00;;;;;;;4.87;2.10;;;10.20;99.90;;;;;;5135423;27;20183;-68
2022/05/09 03:02:26;;;;;;;6.10;1.90;;;10.20;99.90;;;;;;5131835;27;20173;-70
2022/05/09 03:04:52;;;;;;;3.17;2.10;;;10.10;99.90;;;;;;5134854;27;20660;-69
2022/05/09 03:07:19;;;;;;;3.87;2.30;;;10.20;99.90;;;;;;5134638;27;20606;-68
2022/05/09 03:09:47;;;;;;;3.87;2.10;;;10.30;99.90;;;;;;5134776;28;20192;-70
2022/05/09 03:12:13;;;;;;;2.73;2.20;;;10.30;99.90;;;;;;5134924;28;20157;-68
2022/05/09 03:14:39;;;;;;;5.03;2.27;;;10.30;99.90;;;;;;5134956;28;20536;-68
2022/05/09 03:17:08;;;;;;;5.47;2.23;;;10.10;99.90;;;;;;5134969;28;20154;-68
2022/05/09 03:19:33;;;;;;;4.80;2.10;;;10.10;99.90;;;;;;5136113;28;20158;-68
2022/05/09 03:22:00;;;;;;;4.03;1.90;;;10.00;99.90;;;;;;5118062;28;20183;-68
2022/05/09 03:24:26;;;;;;;3.53;2.37;;;10.00;99.90;;;;;;5135706;28;20449;-67
2022/05/09 03:26:52;;;;;;;3.40;2.13;;;10.10;99.90;;;;;;5118270;28;20166;-68
2022/05/09 03:29:19;;;;;;;3.40;2.07;;;10.10;99.90;;;;;;5120972;28;20189;-67
2022/05/09 03:31:46;;;;;;;2.97;2.30;;;10.00;99.90;;;;;;5144358;27;20222;-66
2022/05/09 03:34:14;;;;;;;7.17;2.27;;;10.10;99.90;;;;;;5146273;27;20188;-68
2022/05/09 03:36:40;;;;;;;4.00;2.23;;;9.90;99.90;;;;;;5122189;27;20216;-67
2022/05/09 03:39:06;;;;;;;3.40;2.20;;;9.80;99.90;;;;;;5140751;27;20190;-69
2022/05/09 03:41:32;;;;;;;5.37;2.43;;;9.80;99.90;;;;;;5140474;27;20207;-68
2022/05/09 03:43:58;;;;;;;3.77;2.20;;;9.90;99.90;;;;;;5140458;27;20573;-68
2022/05/09 03:46:23;;;;;;;3.00;2.00;;;9.90;99.90;;;;;;5152185;27;20161;-71
2022/05/09 03:48:49;;;;;;;3.03;2.17;;;10.00;99.90;;;;;;5143233;27;20198;-69
2022/05/09 03:51:15;;;;;;;4.53;2.77;;;10.00;99.90;;;;;;5137851;27;20161;-67
2022/05/09 03:53:40;;;;;;;7.33;2.20;;;9.70;99.90;;;;;;5138515;27;20161;-67
2022/05/09 03:56:07;;;;;;;3.27;1.87;;;9.80;99.90;;;;;;5138574;27;20166;-69
2022/05/09 03:58:33;;;;;;;7.83;2.07;;;9.70;99.90;;;;;;5137961;27;20582;-68
2022/05/09 04:00:59;;;;;;;5.17;2.37;;;9.80;99.90;;;;;;5137821;27;20615;-69
2022/05/09 04:03:25;;;;;;;7.10;2.03;;;10.00;99.90;;;;;;5119296;27;20221;-69
2022/05/09 04:05:50;;;;;;;3.93;2.40;;;9.90;99.90;;;;;;5138295;27;20154;-67
2022/05/09 04:08:20;;;;;;;3.57;2.50;;;9.90;99.90;;;;;;5119372;27;20209;-66
2022/05/09 04:10:47;;;;;;;4.03;2.23;;;9.80;99.90;;;;;;5137973;27;20182;-69
2022/05/09 04:13:14;;;;;;;3.77;1.97;;;9.70;99.90;;;;;;5138240;27;20596;-69
2022/05/09 04:18:27;;;;;;;3.80;2.53;;;9.90;99.90;;;;;;5137378;27;20211;-69
2022/05/09 04:20:52;;;;;;;4.23;2.63;;;10.10;99.90;;;;;;5137627;27;20245;-68
2022/05/09 04:23:19;;;;;;;3.80;2.50;;;10.10;99.90;;;;;;5137601;27;20178;-67
2022/05/09 04:25:46;;;;;;;4.00;2.33;;;10.00;99.90;;;;;;5137596;27;20226;-67
2022/05/09 04:28:11;;;;;;;3.70;2.73;;;9.90;99.90;;;;;;5137711;27;20623;-68
2022/05/09 04:30:38;;;;;;;4.33;2.53;;;10.10;99.90;;;;;;5119587;27;20172;-68
2022/05/09 04:33:07;;;;;;;4.30;2.30;;;10.10;99.90;;;;;;5138067;27;20248;-67
2022/05/09 04:35:34;;;;;;;6.33;2.83;;;10.20;99.90;;;;;;5138180;27;20244;-68
2022/05/09 04:38:02;;;;;;;6.17;2.70;;;10.30;99.90;;;;;;5139548;27;20597;-67
2022/05/09 04:40:30;;;;;;;7.63;2.67;;;10.20;99.90;;;;;;5140354;27;20157;-69
2022/05/09 04:42:56;;;;;;;5.17;2.50;;;10.30;99.90;;;;;;5139638;27;20161;-67
2022/05/09 04:45:22;;;;;;;4.50;2.87;;;10.20;99.90;;;;;;5141501;27;20169;-67
2022/05/09 04:47:51;;;;;;;3.23;2.60;;;10.50;99.90;;;;;;5119888;27;20205;-67
2022/05/09 04:50:20;;;;;;;3.33;2.80;;;10.50;99.90;;;;;;5119934;27;20230;-68
2022/05/09 04:52:45;;;;;;;7.93;2.80;;;10.50;99.90;;;;;;5136818;27;20154;-67
2022/05/09 04:55:12;;;;;;;3.07;2.77;;;10.60;99.90;;;;;;5137243;27;20145;-68
2022/05/09 04:57:39;;;;;;;5.10;3.10;;;10.70;99.90;;;;;;5139862;27;20590;-66
2022/05/09 05:00:07;;;;;;;3.93;3.00;;;10.70;99.90;;;;;;5118887;27;20197;-68
2022/05/09 05:02:32;;;;;;;6.13;3.40;;;10.80;99.90;;;;;;5137040;27;20632;-68
2022/05/09 05:04:58;;;;;;;3.73;2.97;;;10.90;99.90;;;;;;5137508;27;20220;-67
2022/05/09 05:07:24;;;;;;;4.70;2.80;;;11.10;99.90;;;;;;5136607;27;20221;-68
2022/05/09 05:09:49;;;;;;;5.13;2.90;;;11.10;99.90;;;;;;5137201;27;20165;-68
2022/05/09 05:12:15;;;;;;;9.07;3.23;;;11.20;99.90;;;;;;5136489;27;20173;-68
2022/05/09 05:14:40;;;;;;;7.70;2.90;;;11.30;99.90;;;;;;5136542;27;20176;-68
2022/05/09 05:17:06;;;;;;;8.50;2.90;;;11.20;99.90;;;;;;5136171;27;20161;-67
2022/05/09 05:19:36;;;;;;;4.53;2.73;;;11.30;99.90;;;;;;5137346;27;20157;-67
2022/05/09 05:22:03;;;;;;;5.97;2.77;;;11.40;99.90;;;;;;5136546;27;20206;-67
2022/05/09 05:24:33;;;;;;;6.40;3.23;;;11.40;99.90;;;;;;5137068;27;20558;-68
2022/05/09 05:26:58;;;;;;;5.73;2.80;;;11.60;99.90;;;;;;5118104;27;20185;-66
2022/05/09 05:29:24;;;;;;;7.40;2.90;;;11.70;99.90;;;;;;5137060;27;20173;-67
2022/05/09 05:31:50;;;;;;;9.27;3.63;;;11.80;99.90;;;;;;5137458;27;20195;-69
2022/05/09 05:34:16;;;;;;;15.73;3.23;;;11.80;99.90;;;;;;5137115;27;20253;-66
2022/05/09 05:36:41;;;;;;;8.07;2.60;;;11.60;99.90;;;;;;5136443;27;20174;-68
2022/05/09 05:39:09;;;;;;;4.10;2.57;;;11.70;99.90;;;;;;5135938;27;20219;-66
2022/05/09 05:41:35;;;;;;;6.10;2.60;;;12.10;99.90;;;;;;5136251;27;20150;-67
2022/05/09 05:44:01;;;;;;;7.30;2.47;;;12.20;99.90;;;;;;5135797;27;20669;-66
2022/05/09 05:46:27;;;;;;;6.17;2.63;;;12.10;99.90;;;;;;5136065;27;20181;-69
2022/05/09 05:48:52;;;;;;;7.77;2.70;;;12.30;99.90;;;;;;5135837;27;20229;-67
2022/05/09 05:51:21;;;;;;;3.83;2.40;;;12.40;99.90;;;;;;5136248;27;20193;-67
2022/05/09 05:53:47;;;;;;;7.10;2.77;;;12.30;99.90;;;;;;5136080;27;20257;-67
2022/05/09 05:56:12;;;;;;;3.50;2.30;;;12.60;99.90;;;;;;5138432;27;20169;-68
2022/05/09 05:58:38;;;;;;;5.57;2.50;;;12.60;99.90;;;;;;5138335;27;20162;-67
2022/05/09 06:01:04;;;;;;;7.23;2.60;;;12.30;99.90;;;;;;5137735;27;20178;-66
2022/05/09 06:03:30;;;;;;;7.03;2.70;;;12.30;99.90;;;;;;5137727;27;20691;-66
2022/05/09 06:05:56;;;;;;;4.80;2.47;;;12.50;99.90;;;;;;5136799;27;20169;-66
2022/05/09 06:08:22;;;;;;;5.27;2.70;;;12.70;99.90;;;;;;5135779;27;20197;-67
2022/05/09 06:10:47;;;;;;;6.57;2.97;;;12.90;99.90;;;;;;5135643;27;20171;-68
2022/05/09 06:13:13;;;;;;;9.03;3.10;;;13.00;99.90;;;;;;5117438;27;20169;-67
2022/05/09 06:15:42;;;;;;;3.80;2.40;;;12.90;99.90;;;;;;5135867;27;20589;-65
2022/05/09 06:18:09;;;;;;;4.87;2.63;;;13.20;99.90;;;;;;5135690;27;20177;-66
2022/05/09 06:20:39;;;;;;;8.27;3.50;;;13.30;99.90;;;;;;5139017;27;20248;-67
2022/05/09 06:23:06;;;;;;;6.53;2.73;;;13.40;99.90;;;;;;5137090;27;20234;-66
2022/05/09 06:25:37;;;;;;;5.73;2.93;;;13.60;99.90;;;;;;5135730;27;20157;-65
2022/05/09 06:28:05;;;;;;;6.47;3.30;;;13.60;99.90;;;;;;5135568;27;20616;-66
2022/05/09 06:30:31;;;;;;;7.10;2.90;;;13.70;99.90;;;;;;5117505;27;20177;-66
2022/05/09 06:32:58;;;;;;;5.43;2.80;;;13.80;99.90;;;;;;5136166;27;20169;-66
2022/05/09 06:35:26;;;;;;;5.53;2.80;;;13.90;99.90;;;;;;5136347;27;20153;-66
2022/05/09 06:37:57;;;;;;;6.93;2.80;;;14.10;99.90;;;;;;5136395;27;20229;-67
2022/05/09 06:40:23;;;;;;;6.57;3.33;;;14.00;99.90;;;;;;5140954;27;20169;-67
2022/05/09 06:42:51;;;;;;;6.50;3.33;;;13.90;99.90;;;;;;5149256;27;20550;-66
2022/05/09 06:45:17;;;;;;;6.80;3.33;;;14.10;99.90;;;;;;5135788;27;20171;-66
2022/05/09 06:47:47;;;;;;;6.77;3.00;;;14.10;99.90;;;;;;5135185;27;20236;-67
2022/05/09 06:50:14;;;;;;;8.43;3.23;;;14.10;99.90;;;;;;5135599;27;20697;-67
2022/05/09 06:52:39;;;;;;;5.37;3.03;;;14.20;99.90;;;;;;5135179;27;20150;-67
2022/05/09 06:55:05;;;;;;;7.70;2.80;;;14.60;99.90;;;;;;5135538;27;20172;-66
2022/05/09 06:57:33;;;;;;;7.80;2.77;;;14.70;99.90;;;;;;5135288;27;20231;-66
2022/05/09 06:59:58;;;;;;;8.47;3.07;;;14.80;99.90;;;;;;5135449;27;20604;-70
2022/05/09 07:02:24;;;;;;;6.07;2.80;;;14.70;99.90;;;;;;5138268;27;20188;-70
2022/05/09 07:04:49;;;;;;;10.60;3.03;;;15.10;99.90;;;;;;5141590;27;20221;-65
2022/05/09 07:07:15;;;;;;;8.23;3.47;;;15.20;99.90;;;;;;5141609;27;20549;-66
2022/05/09 07:09:41;;;;;;;5.60;3.53;;;15.20;99.90;;;;;;5141010;28;20162;-66
2022/05/09 07:12:07;;;;;;;6.83;3.00;;;15.40;99.90;;;;;;5141878;28;20168;-67
2022/05/09 07:14:32;;;;;;;6.23;3.17;;;15.40;99.90;;;;;;5139516;28;20176;-64
2022/05/09 07:16:58;;;;;;;5.67;3.10;;;15.60;99.90;;;;;;5135922;28;20606;-67
2022/05/09 07:19:24;;;;;;;5.27;2.83;;;15.70;99.90;;;;;;5140922;28;20170;-67
2022/05/09 07:21:49;;;;;;;5.87;3.07;;;15.70;99.90;;;;;;5136841;28;20188;-65
2022/05/09 07:24:15;;;;;;;4.80;2.40;;;15.70;99.90;;;;;;5138712;28;20158;-65
2022/05/09 07:26:41;;;;;;;10.97;2.73;;;16.00;99.90;;;;;;5139935;28;20189;-66
2022/05/09 07:29:09;;;;;;;9.10;3.20;;;16.10;99.90;;;;;;5117310;28;20244;-67
2022/05/09 07:31:34;;;;;;;4.93;2.90;;;16.30;99.90;;;;;;5137835;28;20189;-66
2022/05/09 07:34:01;;;;;;;6.30;3.23;;;16.40;99.90;;;;;;5139338;28;20169;-69
2022/05/09 07:36:26;;;;;;;7.47;2.77;;;16.60;99.90;;;;;;5139626;28;20165;-68
2022/05/09 07:38:52;;;;;;;5.40;2.88;;;16.60;99.90;;;;;;5138541;28;20491;-66
2022/05/09 07:41:18;;;;;;;7.07;3.40;;;16.70;99.90;;;;;;5140631;28;20256;-68
2022/05/09 07:43:43;;;;;;;9.70;4.47;;;16.90;99.90;;;;;;5140417;28;20166;-68
2022/05/09 07:46:09;;;;;;;5.00;2.93;;;17.00;99.90;;;;;;5137838;27;20186;-66
2022/05/09 07:48:34;;;;;;;8.75;3.17;;;17.00;99.90;;;;;;5141421;28;20197;-65
2022/05/09 07:51:01;;;;;;;7.45;3.30;;;17.00;99.90;;;;;;5138803;28;20249;-67
2022/05/09 07:53:31;;;;;;;6.43;2.97;;;17.00;99.90;;;;;;5119659;28;20468;-67
2022/05/09 07:55:57;;;;;;;6.75;3.30;;;17.30;99.90;;;;;;5137321;28;20186;-66
2022/05/09 07:58:23;;;;;;;16.83;3.13;;;17.50;99.90;;;;;;5120072;28;20169;-66
2022/05/09 08:00:49;;;;;;;7.45;3.58;;;17.70;99.90;;;;;;5137645;28;20165;-66
2022/05/09 08:03:21;;;;;;;7.30;3.67;;;17.50;99.40;;;;;;5136969;28;20574;-66
2022/05/09 08:05:49;;;;;;;5.68;2.72;;;17.50;99.90;;;;;;5137166;28;20703;-66
2022/05/09 08:08:14;;;;;;;6.13;3.25;;;17.60;99.90;;;;;;5153932;27;20205;-65
2022/05/09 08:10:42;;;;;;;6.93;2.63;;;17.80;99.80;;;;;;5138209;28;20588;-66
2022/05/09 08:13:08;;;;;;;8.43;3.25;;;18.00;99.70;;;;;;5136929;28;20209;-65
2022/05/09 08:15:35;;;;;;;8.65;3.50;;;18.10;99.10;;;;;;5136435;28;20162;-66
2022/05/09 08:18:02;;;;;;;12.70;2.85;;;18.20;98.50;;;;;;5136852;27;20157;-66
2022/05/09 08:20:30;;;;;;;9.23;3.22;;;18.30;98.10;;;;;;5137995;27;20162;-66
2022/05/09 08:23:11;;;;;;;10.82;2.70;;;18.50;99.50;;;;;;5137918;27;20172;-66
2022/05/09 08:25:40;;;;;;;7.93;2.90;;;18.70;98.90;;;;;;5138532;27;20174;-67
2022/05/09 08:28:07;;;;;;;6.90;2.85;;;18.90;96.60;;;;;;5137903;27;20246;-69
2022/05/09 08:30:34;;;;;;;5.70;3.03;;;19.10;97.10;;;;;;5138169;27;20150;-67
2022/05/09 08:33:06;;;;;;;5.20;2.65;;;19.00;95.00;;;;;;5119991;27;20173;-67
2022/05/09 08:35:32;;;;;;;10.68;2.97;;;19.00;94.80;;;;;;5138918;27;20549;-65
2022/05/09 08:37:58;;;;;;;4.40;2.67;;;19.00;94.70;;;;;;5140045;27;20170;-65
2022/05/09 08:40:32;;;;;;;7.57;3.25;;;19.20;94.60;;;;;;5121784;27;20176;-67
2022/05/09 08:43:28;;;;;;;8.15;2.90;;;19.30;93.20;;;;;;5140239;27;20153;-66
2022/05/09 08:46:20;;;;;;;5.15;2.92;;;19.20;93.80;;;;;;5140976;27;20173;-66
2022/05/09 08:49:05;;;;;;;5.07;2.83;;;19.50;92.90;;;;;;5140640;27;20300;-65
2022/05/09 08:52:16;;;;;;;7.40;3.35;;;19.70;93.30;;;;;;5157169;27;20262;-66
2022/05/09 08:54:42;;;;;;;9.13;3.33;;;19.90;92.00;;;;;;5138367;27;20620;-69
2022/05/09 08:57:22;;;;;;;8.98;2.92;;;20.00;91.10;;;;;;5123767;27;20181;-67
2022/05/09 08:59:58;;;;;;;6.00;2.63;;;20.10;92.90;;;;;;5147645;27;20238;-67
2022/05/09 09:02:40;;;;;;;8.00;3.03;;;20.30;90.90;;;;;;5145986;27;20184;-67
2022/05/09 09:05:11;;;;;;;7.20;3.30;;;20.40;90.50;;;;;;5125804;27;20535;-67
2022/05/09 09:07:49;;;;;;;12.13;3.38;;;20.40;90.10;;;;;;5126478;27;20204;-66
2022/05/09 09:10:29;;;;;;;9.75;3.60;;;20.00;90.10;;;;;;5146669;27;20640;-65
2022/05/09 09:13:26;;;;;;;5.78;3.00;;;20.10;90.00;;;;;;5144015;27;20165;-66
2022/05/09 09:16:24;;;;;;;5.70;2.80;;;20.00;88.70;;;;;;5126193;27;20174;-67
2022/05/09 09:19:04;;;;;;;4.75;2.67;;;20.30;88.70;;;;;;5144813;27;20198;-66
2022/05/09 09:21:42;;;;;;;5.05;2.63;;;20.40;86.10;;;;;;5140555;27;20166;-67
2022/05/09 09:24:45;;;;;;;7.28;2.88;;;20.20;85.90;;;;;;5137558;27;20165;-67
2022/05/09 09:27:16;;;;;;;7.90;2.70;;;20.50;86.80;;;;;;5137288;27;20174;-67
2022/05/09 09:29:46;;;;;;;6.72;2.80;;;21.10;84.60;;;;;;5136612;27;20168;-66
2022/05/09 09:32:15;;;;;;;3.33;2.55;;;21.20;82.80;;;;;;5137333;27;20219;-67
2022/05/09 09:34:50;;;;;;;6.63;2.70;;;21.20;79.90;;;;;;5137853;27;20226;-67
2022/05/09 09:37:41;;;;;;;4.75;2.42;;;21.20;78.80;;;;;;5146153;27;20207;-67
2022/05/09 09:40:08;;;;;;;5.68;2.47;;;21.30;77.30;;;;;;5128127;27;20214;-67
2022/05/09 09:42:33;;;;;;;5.20;2.50;;;21.30;76.60;;;;;;5137337;27;20202;-65
2022/05/09 09:45:03;;;;;;;7.00;2.85;;;20.70;78.00;;;;;;5137721;27;20260;-67
2022/05/09 09:47:30;;;;;;;5.05;2.72;;;19.80;79.80;;;;;;5138821;27;20644;-66
2022/05/09 09:50:29;;;;;;;5.55;2.30;;;19.60;82.10;;;;;;5138900;27;20161;-67
2022/05/09 09:52:57;;;;;;;8.02;2.45;;;19.70;84.20;;;;;;5137334;27;20200;-65
2022/05/09 09:55:28;;;;;;;9.57;2.40;;;19.60;83.00;;;;;;5140920;27;20153;-67
2022/05/09 09:57:56;;;;;;;6.07;2.38;;;20.30;82.10;;;;;;5140641;27;20663;-67
2022/05/09 10:00:25;;;;;;;3.30;2.10;;;20.90;77.60;;;;;;5137944;27;20161;-67
2022/05/09 10:02:52;;;;;;;4.00;2.25;;;21.40;77.40;;;;;;5140824;27;20173;-67
2022/05/09 10:05:33;;;;;;;3.65;2.40;;;21.40;73.60;;;;;;5147632;27;20229;-66
2022/05/09 10:08:16;;;;;;;6.15;2.70;;;21.20;75.90;;;;;;5146659;27;20193;-67
2022/05/09 10:10:56;;;;;;;5.07;2.30;;;20.90;75.00;;;;;;5138975;27;20195;-65
2022/05/09 10:13:22;;;;;;;5.65;2.55;;;20.70;73.10;;;;;;5140015;27;20229;-66
2022/05/09 10:16:05;;;;;;;3.80;2.30;;;20.90;74.50;;;;;;5140251;27;20225;-65
2022/05/09 10:18:32;;;;;;;11.10;2.20;;;21.40;70.30;;;;;;5137968;27;20181;-65
2022/05/09 10:21:11;;;;;;;7.38;2.55;;;21.70;68.80;;;;;;5143260;27;20261;-66
2022/05/09 10:26:36;;;;;;;3.47;2.33;;;21.80;64.60;;;;;;5148653;27;20305;-67
2022/05/09 10:29:13;;;;;;;6.65;2.42;;;21.30;63.00;;;;;;5146097;27;20272;-65
2022/05/09 10:31:50;;;;;;;2.50;1.88;;;20.90;63.40;;;;;;5144176;27;20231;-66
2022/05/09 10:34:26;;;;;;;5.40;2.10;;;20.70;63.90;;;;;;5159341;27;20240;-66
2022/05/09 10:37:03;;;;;;;3.75;2.08;;;20.80;63.80;;;;;;5143682;27;20244;-70
2022/05/09 10:40:08;;;;;;;5.07;1.90;;;20.80;62.70;;;;;;5139963;27;20157;-68
2022/05/09 10:42:39;;;;;;;3.78;2.28;;;21.50;62.60;;;;;;5121880;27;20189;-67
2022/05/09 10:45:11;;;;;;;3.72;1.88;;;21.80;60.00;;;;;;5135055;27;20158;-66
2022/05/09 10:48:04;;;;;;;3.08;2.05;;;22.40;60.20;;;;;;5135029;27;20231;-67
2022/05/09 10:50:39;;;;;;;5.05;1.83;;;22.90;58.90;;;;;;5134705;27;20158;-66
2022/05/09 10:53:10;;;;;;;6.53;2.05;;;22.80;57.00;;;;;;5117030;27;20202;-67
2022/05/09 10:55:39;;;;;;;2.35;1.92;;;22.50;57.00;;;;;;5135201;27;20188;-66
2022/05/09 10:58:19;;;;;;;6.68;2.20;;;22.20;56.70;;;;;;5134758;27;20214;-66
2022/05/09 11:00:49;;;;;;;2.85;2.13;;;22.30;57.10;;;;;;5134381;27;20158;-66
2022/05/09 11:03:22;;;;;;;4.57;2.30;;;22.70;55.70;;;;;;5135122;27;20221;-67
2022/05/09 11:05:59;;;;;;;4.25;2.20;;;22.80;55.20;;;;;;5116478;28;20173;-65
2022/05/09 11:08:35;;;;;;;8.27;1.88;;;22.70;55.70;;;;;;5134795;27;20234;-67
2022/05/09 11:11:24;;;;;;;4.22;2.00;;;22.70;56.80;;;;;;5134483;27;20240;-68
2022/05/09 11:14:17;;;;;;;3.55;2.10;;;23.00;55.10;;;;;;5134699;28;20165;-66
2022/05/09 11:16:54;;;;;;;8.10;2.25;;;22.90;54.60;;;;;;5134524;28;20188;-66
2022/05/09 11:19:30;;;;;;;4.95;1.70;;;22.70;54.80;;;;;;5134867;28;20203;-67
2022/05/09 11:22:03;;;;;;;6.10;2.13;;;22.60;54.90;;;;;;5150261;27;20173;-65
2022/05/09 11:24:48;;;;;;;3.13;1.98;;;22.90;54.80;;;;;;5134383;28;20158;-66
2022/05/09 11:27:31;;;;;;;6.22;2.35;;;23.40;55.10;;;;;;5134692;28;20153;-66
2022/05/09 11:30:20;;;;;;;9.00;2.00;;;23.50;54.50;;;;;;5134081;28;20645;-66
2022/05/09 11:32:53;;;;;;;3.85;1.67;;;23.50;53.70;;;;;;5133945;28;20652;-65
2022/05/09 11:35:31;;;;;;;13.30;5.22;;;23.00;53.50;;;;;;5134169;28;20154;-64
2022/05/09 11:38:14;;;;;;;34.90;12.10;;;23.20;53.90;;;;;;5134150;28;20557;-68
2022/05/09 11:40:56;;;;;;;6.28;2.70;;;23.30;55.00;;;;;;5134048;28;20158;-65
2022/05/09 11:43:43;;;;;;;4.30;2.25;;;23.60;53.90;;;;;;5134243;28;20607;-68
2022/05/09 11:46:14;;;;;;;8.07;2.10;;;23.90;53.70;;;;;;5133760;28;20161;-66
2022/05/09 11:48:54;;;;;;;3.92;2.10;;;23.60;53.00;;;;;;5115483;28;20653;-67
2022/05/09 11:51:31;;;;;;;11.75;6.28;;;23.50;51.50;;;;;;5134130;27;20214;-67
2022/05/09 11:54:03;;;;;;;11.45;7.65;;;23.60;51.70;;;;;;5139554;27;20165;-70
2022/05/09 11:56:30;;;;;;;5.28;2.15;;;23.40;51.80;;;;;;5138062;27;20162;-70
2022/05/09 11:58:58;;;;;;;6.28;2.03;;;23.20;52.90;;;;;;5138350;27;20322;-66
2022/05/09 12:01:54;;;;;;;4.72;2.03;;;23.30;52.40;;;;;;5138355;27;20173;-66
2022/05/09 12:04:41;;;;;;;3.85;1.88;;;23.40;51.60;;;;;;5138721;27;20558;-66
2022/05/09 12:07:26;;;;;;;2.33;1.80;;;22.60;52.30;;;;;;5138216;27;20161;-68
2022/05/09 12:10:17;;;;;;;4.95;1.85;;;22.90;53.30;;;;;;5137584;27;20585;-68
2022/05/09 12:12:49;;;;;;;3.10;1.70;;;23.20;53.10;;;;;;5138196;27;20157;-68
2022/05/09 12:15:15;;;;;;;7.07;2.30;;;23.10;52.20;;;;;;5138443;27;20166;-68
2022/05/09 12:17:48;;;;;;;3.25;1.98;;;22.70;52.30;;;;;;5137707;27;20170;-67
2022/05/09 12:20:37;;;;;;;3.45;1.67;;;23.20;52.40;;;;;;5138446;27;20248;-66
2022/05/09 12:23:04;;;;;;;4.40;2.00;;;23.70;52.30;;;;;;5107476;27;20249;-66
2022/05/09 12:25:42;;;;;;;4.07;1.83;;;23.90;51.70;;;;;;5122075;27;20246;-66
2022/05/09 12:28:25;;;;;;;4.00;1.70;;;23.50;50.90;;;;;;5142525;27;20193;-66
2022/05/09 12:31:26;;;;;;;3.67;2.80;;;23.60;50.60;;;;;;5143348;27;20226;-65
2022/05/09 12:33:54;;;;;;;8.25;3.40;;;23.70;49.60;;;;;;5138116;27;20177;-67
2022/05/09 12:36:22;;;;;;;2.80;1.95;;;23.80;50.70;;;;;;5138239;27;20601;-65
2022/05/09 12:38:51;;;;;;;5.55;2.22;;;23.90;50.20;;;;;;5138579;27;20166;-65
2022/05/09 12:41:25;;;;;;;4.10;2.42;;;23.80;49.50;;;;;;5138334;27;20169;-67
2022/05/09 12:44:01;;;;;;;4.45;1.98;;;23.90;50.00;;;;;;5138257;27;20158;-65
2022/05/09 12:46:33;;;;;;;3.70;2.13;;;23.90;49.90;;;;;;5138480;27;20203;-67
2022/05/09 12:49:02;;;;;;;3.17;1.80;;;23.80;49.10;;;;;;5121443;27;20209;-67
2022/05/09 12:51:31;;;;;;;2.63;1.50;;;23.80;49.50;;;;;;5137510;27;20172;-66
2022/05/09 12:53:58;;;;;;;7.85;2.00;;;23.80;49.20;;;;;;5136659;27;20584;-67
2022/05/09 12:56:28;;;;;;;7.32;1.98;;;23.90;49.70;;;;;;5136472;27;20268;-67
2022/05/09 12:59:06;;;;;;;5.40;1.98;;;24.30;49.60;;;;;;5118652;27;20181;-67
2022/05/09 13:01:33;;;;;;;7.95;2.42;;;24.10;48.10;;;;;;5132979;27;20181;-66
2022/05/09 13:04:02;;;;;;;5.22;1.85;;;24.00;47.60;;;;;;5135915;27;20229;-68
2022/05/09 13:06:34;;;;;;;2.50;1.73;;;24.00;47.90;;;;;;5136237;27;20193;-67
2022/05/09 13:09:14;;;;;;;3.05;1.60;;;24.30;48.40;;;;;;5136764;27;20193;-68
2022/05/09 13:11:40;;;;;;;11.48;2.38;;;23.50;48.50;;;;;;5137421;27;20154;-65
2022/05/09 13:14:17;;;;;;;4.65;1.85;;;23.80;49.10;;;;;;5118086;27;20581;-68